createdAt,value
2018-08-20T00:00:44.426Z,20.20
2018-08-20T00:03:12.738Z,20.30
2018-08-20T00:05:43.185Z,20.20
2018-08-20T00:08:11.322Z,20.10
2018-08-20T00:10:39.610Z,20.10
2018-08-20T00:13:07.801Z,20.10
2018-08-20T00:15:35.930Z,20.10
2018-08-20T00:18:04.052Z,20.00
2018-08-20T00:20:32.186Z,20.00
2018-08-20T00:23:00.293Z,19.90
2018-08-20T00:25:28.447Z,19.90
2018-08-20T00:27:56.562Z,19.90
2018-08-20T00:30:24.703Z,19.80
2018-08-20T00:32:54.515Z,19.80
2018-08-20T00:35:22.648Z,19.80
2018-08-20T00:37:51.981Z,19.80
2018-08-20T00:40:20.874Z,19.70
2018-08-20T00:42:49.140Z,19.80
2018-08-20T00:45:17.265Z,19.70
2018-08-20T00:47:45.383Z,19.70
2018-08-20T00:50:13.508Z,19.70
2018-08-20T00:52:41.630Z,19.70
2018-08-20T00:55:11.365Z,19.70
2018-08-20T00:57:39.951Z,19.70
2018-08-20T01:00:08.877Z,19.70
2018-08-20T01:02:37.001Z,19.70
2018-08-20T01:05:05.182Z,19.60
2018-08-20T01:07:33.295Z,19.60
2018-08-20T01:10:01.397Z,19.60
2018-08-20T01:12:29.517Z,19.60
2018-08-20T01:14:57.668Z,19.60
2018-08-20T01:17:25.811Z,19.60
2018-08-20T01:19:54.017Z,19.60
2018-08-20T01:22:22.139Z,19.60
2018-08-20T01:24:50.559Z,19.60
2018-08-20T01:27:24.094Z,19.70
2018-08-20T01:29:52.745Z,19.80
2018-08-20T01:32:20.922Z,19.80
2018-08-20T01:34:49.086Z,19.80
2018-08-20T01:37:18.599Z,19.80
2018-08-20T01:39:47.178Z,19.80
2018-08-20T01:42:16.274Z,19.80
2018-08-20T01:44:45.219Z,19.80
2018-08-20T01:47:13.369Z,19.80
2018-08-20T01:49:41.509Z,19.70
2018-08-20T01:52:09.695Z,19.80
2018-08-20T01:54:38.027Z,19.80
2018-08-20T01:57:07.078Z,19.80
2018-08-20T01:59:35.455Z,19.80
2018-08-20T02:02:03.590Z,19.90
2018-08-20T02:04:31.715Z,19.90
2018-08-20T02:07:00.062Z,19.90
2018-08-20T02:09:28.209Z,19.90
2018-08-20T02:11:56.366Z,19.90
2018-08-20T02:14:24.518Z,19.90
2018-08-20T02:16:52.658Z,19.90
2018-08-20T02:19:20.790Z,19.90
2018-08-20T02:21:48.974Z,19.90
2018-08-20T02:24:17.098Z,19.90
2018-08-20T02:26:45.256Z,19.90
2018-08-20T02:29:13.382Z,20.00
2018-08-20T02:31:41.539Z,20.00
2018-08-20T02:34:09.663Z,20.00
2018-08-20T02:36:37.791Z,20.00
2018-08-20T02:39:09.252Z,20.00
2018-08-20T02:41:37.374Z,20.00
2018-08-20T02:44:05.601Z,20.00
2018-08-20T02:46:48.243Z,20.10
2018-08-20T02:49:17.039Z,20.10
2018-08-20T02:51:45.715Z,20.10
2018-08-20T02:54:13.840Z,20.10
2018-08-20T02:56:42.396Z,20.10
2018-08-20T02:59:10.727Z,20.10
2018-08-20T03:01:38.885Z,20.10
2018-08-20T03:04:07.314Z,20.10
2018-08-20T03:06:35.890Z,20.10
2018-08-20T03:09:06.498Z,20.20
2018-08-20T03:11:34.610Z,20.20
2018-08-20T03:14:03.138Z,20.20
2018-08-20T03:16:31.279Z,20.20
2018-08-20T03:18:59.414Z,20.20
2018-08-20T03:21:27.871Z,20.20
2018-08-20T03:23:56.042Z,20.20
2018-08-20T03:26:24.170Z,20.30
2018-08-20T03:28:52.343Z,20.30
2018-08-20T03:31:20.478Z,20.30
2018-08-20T03:33:48.607Z,20.40
2018-08-20T03:36:16.778Z,20.40
2018-08-20T03:38:44.945Z,20.40
2018-08-20T03:41:13.071Z,20.50
2018-08-20T03:43:41.230Z,20.50
2018-08-20T03:46:09.370Z,20.50
2018-08-20T03:48:37.494Z,20.50
2018-08-20T03:51:05.698Z,20.60
2018-08-20T03:53:33.836Z,20.60
2018-08-20T03:56:01.988Z,20.60
2018-08-20T03:58:30.127Z,20.60
2018-08-20T04:00:58.278Z,20.60
2018-08-20T04:03:26.403Z,20.60
2018-08-20T04:05:54.551Z,20.60
2018-08-20T04:08:22.707Z,20.60
2018-08-20T04:10:50.866Z,20.60
2018-08-20T04:13:19.006Z,20.60
2018-08-20T04:15:47.162Z,20.60
2018-08-20T04:18:15.304Z,20.60
2018-08-20T04:20:43.439Z,20.60
2018-08-20T04:23:11.574Z,20.60
2018-08-20T04:25:39.733Z,20.60
2018-08-20T04:28:07.896Z,20.60
2018-08-20T04:30:36.101Z,20.60
2018-08-20T04:33:04.163Z,20.60
2018-08-20T04:35:32.308Z,20.60
2018-08-20T04:38:00.436Z,20.60
2018-08-20T04:40:28.562Z,20.60
2018-08-20T04:42:56.699Z,20.60
2018-08-20T04:45:31.606Z,20.60
2018-08-20T04:47:59.743Z,20.60
2018-08-20T04:50:28.095Z,20.60
2018-08-20T04:52:56.043Z,20.60
2018-08-20T04:55:24.238Z,20.60
2018-08-20T04:57:52.370Z,20.50
2018-08-20T05:00:20.651Z,20.50
2018-08-20T05:02:48.778Z,20.40
2018-08-20T05:05:16.957Z,20.40
2018-08-20T05:07:45.083Z,20.30
2018-08-20T05:10:13.216Z,20.40
2018-08-20T05:12:41.355Z,20.30
2018-08-20T05:15:10.031Z,20.30
2018-08-20T05:17:38.159Z,20.40
2018-08-20T05:20:06.918Z,20.30
2018-08-20T05:22:35.075Z,20.30
2018-08-20T05:25:03.242Z,20.30
2018-08-20T05:27:31.381Z,20.20
2018-08-20T05:29:59.505Z,20.20
2018-08-20T05:32:27.642Z,20.30
2018-08-20T05:34:55.766Z,20.30
2018-08-20T05:37:23.894Z,20.30
2018-08-20T05:39:52.052Z,20.40
2018-08-20T05:42:20.178Z,20.40
2018-08-20T05:44:48.334Z,20.50
2018-08-20T05:47:16.487Z,20.50
2018-08-20T05:49:44.633Z,20.60
2018-08-20T05:52:12.774Z,20.70
2018-08-20T05:54:40.894Z,20.80
2018-08-20T05:57:09.038Z,20.90
2018-08-20T05:59:37.170Z,20.90
2018-08-20T06:02:05.306Z,20.90
2018-08-20T06:04:33.427Z,21.00
2018-08-20T06:07:01.719Z,21.10
2018-08-20T06:09:29.847Z,21.20
2018-08-20T06:11:57.980Z,21.20
2018-08-20T06:14:32.149Z,21.20
2018-08-20T06:17:00.488Z,21.30
2018-08-20T06:19:28.860Z,21.30
2018-08-20T06:21:57.294Z,21.30
2018-08-20T06:24:25.398Z,21.30
2018-08-20T06:26:54.097Z,21.20
2018-08-20T06:29:22.989Z,21.20
2018-08-20T06:31:52.318Z,21.10
2018-08-20T06:34:20.422Z,21.10
2018-08-20T06:36:48.535Z,21.10
2018-08-20T06:39:21.759Z,21.20
2018-08-20T06:41:49.882Z,21.30
2018-08-20T06:44:18.016Z,21.40
2018-08-20T06:46:46.139Z,21.60
2018-08-20T06:49:15.839Z,21.70
2018-08-20T06:51:44.964Z,21.90
2018-08-20T06:54:14.021Z,22.00
2018-08-20T06:56:42.969Z,22.10
2018-08-20T06:59:11.968Z,22.10
2018-08-20T07:01:41.085Z,22.20
2018-08-20T07:04:09.833Z,22.30
2018-08-20T07:06:38.455Z,22.50
2018-08-20T07:09:07.958Z,22.50
2018-08-20T07:11:36.795Z,22.50
2018-08-20T07:14:06.304Z,22.60
2018-08-20T07:16:34.423Z,22.60
2018-08-20T07:19:02.566Z,22.70
2018-08-20T07:21:31.345Z,22.80
2018-08-20T07:23:59.568Z,22.80
2018-08-20T07:26:27.646Z,22.80
2018-08-20T07:28:55.805Z,22.80
2018-08-20T07:31:23.939Z,22.70
2018-08-20T07:33:52.512Z,22.70
2018-08-20T07:36:21.343Z,22.70
2018-08-20T07:38:49.483Z,22.60
2018-08-20T07:41:17.809Z,22.50
2018-08-20T07:43:45.950Z,22.50
2018-08-20T07:46:14.094Z,22.50
2018-08-20T07:48:42.319Z,22.60
2018-08-20T07:51:10.463Z,22.60
2018-08-20T07:53:38.612Z,22.60
2018-08-20T07:56:07.063Z,22.60
2018-08-20T07:58:35.226Z,22.60
2018-08-20T08:01:03.378Z,22.60
2018-08-20T08:03:32.278Z,22.60
2018-08-20T08:06:02.589Z,22.60
2018-08-20T08:08:30.747Z,22.60
2018-08-20T08:10:58.906Z,22.70
2018-08-20T08:13:27.043Z,22.80
2018-08-20T08:15:55.268Z,22.90
2018-08-20T08:18:23.387Z,22.90
2018-08-20T08:20:51.506Z,23.10
2018-08-20T08:23:19.644Z,23.20
2018-08-20T08:25:47.766Z,23.20
2018-08-20T08:28:15.903Z,23.10
2018-08-20T08:30:44.029Z,23.20
2018-08-20T08:33:12.150Z,23.20
2018-08-20T08:35:40.326Z,23.20
2018-08-20T08:38:08.535Z,23.30
2018-08-20T08:40:36.598Z,23.30
2018-08-20T08:43:04.735Z,23.30
2018-08-20T08:45:32.906Z,23.40
2018-08-20T08:48:01.026Z,23.40
2018-08-20T08:50:29.162Z,23.40
2018-08-20T08:52:57.298Z,23.40
2018-08-20T08:55:25.443Z,23.40
2018-08-20T08:57:53.578Z,23.40
2018-08-20T09:00:21.812Z,23.50
2018-08-20T09:02:49.963Z,23.50
2018-08-20T09:05:18.079Z,23.40
2018-08-20T09:07:46.214Z,23.50
2018-08-20T09:10:14.350Z,23.50
2018-08-20T09:12:42.685Z,23.50
2018-08-20T09:15:13.292Z,23.50
2018-08-20T09:17:41.632Z,23.40
2018-08-20T09:20:11.792Z,23.50
2018-08-20T09:22:40.159Z,23.70
2018-08-20T09:25:09.574Z,23.90
2018-08-20T09:27:37.706Z,24.00
2018-08-20T09:30:10.915Z,24.00
2018-08-20T09:32:39.097Z,24.10
2018-08-20T09:35:08.239Z,24.00
2018-08-20T09:37:36.463Z,24.00
2018-08-20T09:40:05.499Z,24.00
2018-08-20T09:42:33.636Z,24.00
2018-08-20T09:45:01.883Z,24.10
2018-08-20T09:47:30.006Z,24.20
2018-08-20T09:49:58.539Z,24.20
2018-08-20T09:52:26.674Z,24.30
2018-08-20T09:54:54.843Z,24.30
2018-08-20T09:57:23.155Z,24.30
2018-08-20T09:59:51.374Z,24.40
2018-08-20T10:02:19.534Z,24.60
2018-08-20T10:04:47.650Z,24.80
2018-08-20T10:07:15.783Z,25.00
2018-08-20T10:09:44.002Z,25.10
2018-08-20T10:12:12.090Z,25.30
2018-08-20T10:14:40.226Z,25.50
2018-08-20T10:17:08.427Z,25.50
2018-08-20T10:19:36.540Z,25.40
2018-08-20T10:22:04.676Z,25.20
2018-08-20T10:24:32.939Z,25.00
2018-08-20T10:27:01.017Z,24.90
2018-08-20T10:29:29.158Z,24.80
2018-08-20T10:31:57.332Z,24.80
2018-08-20T10:34:25.639Z,24.50
2018-08-20T10:36:53.895Z,24.20
2018-08-20T10:39:22.112Z,24.20
2018-08-20T10:41:50.262Z,24.00
2018-08-20T10:44:18.432Z,23.80
2018-08-20T10:46:46.600Z,23.80
2018-08-20T10:49:14.811Z,23.70
2018-08-20T10:51:43.066Z,23.60
2018-08-20T10:54:11.229Z,23.40
2018-08-20T10:56:39.413Z,23.30
2018-08-20T10:59:07.551Z,23.20
2018-08-20T11:01:35.698Z,23.10
2018-08-20T11:04:03.822Z,23.20
2018-08-20T11:06:32.116Z,23.30
2018-08-20T11:09:00.273Z,23.30
2018-08-20T11:11:28.435Z,23.40
2018-08-20T11:13:56.586Z,23.50
2018-08-20T11:16:24.822Z,23.60
2018-08-20T11:18:53.156Z,23.60
2018-08-20T11:21:21.215Z,23.70
2018-08-20T11:23:49.366Z,23.60
2018-08-20T11:26:17.548Z,23.60
2018-08-20T11:28:45.719Z,23.60
2018-08-20T11:31:13.887Z,23.70
2018-08-20T11:33:42.099Z,23.80
2018-08-20T11:36:10.217Z,24.00
2018-08-20T11:38:38.352Z,24.10
2018-08-20T11:41:06.478Z,24.10
2018-08-20T11:43:34.622Z,24.20
2018-08-20T11:46:02.748Z,24.50
2018-08-20T11:48:31.002Z,24.60
2018-08-20T11:50:59.223Z,24.70
2018-08-20T11:53:27.385Z,24.70
2018-08-20T11:55:55.538Z,24.60
2018-08-20T11:58:23.670Z,24.50
2018-08-20T12:00:51.787Z,24.40
2018-08-20T12:03:19.999Z,24.30
2018-08-20T12:05:48.088Z,24.30
2018-08-20T12:08:16.228Z,24.30
2018-08-20T12:10:44.450Z,24.20
2018-08-20T12:13:12.646Z,24.10
2018-08-20T12:15:40.770Z,24.10
2018-08-20T12:18:09.000Z,24.00
2018-08-20T12:20:37.123Z,23.90
2018-08-20T12:23:05.325Z,23.90
2018-08-20T12:25:33.410Z,24.00
2018-08-20T12:28:01.563Z,23.90
2018-08-20T12:30:29.694Z,24.00
2018-08-20T12:32:57.824Z,24.00
2018-08-20T12:35:25.986Z,24.10
2018-08-20T12:37:54.103Z,24.00
2018-08-20T12:40:22.324Z,24.00
2018-08-20T12:42:50.363Z,24.10
2018-08-20T12:45:18.483Z,24.10
2018-08-20T12:47:46.600Z,24.00
2018-08-20T12:50:14.745Z,23.90
2018-08-20T12:52:42.871Z,23.90
2018-08-20T12:55:11.020Z,23.70
2018-08-20T12:57:39.154Z,23.70
2018-08-20T13:00:07.490Z,23.70
2018-08-20T13:02:35.592Z,23.90
2018-08-20T13:05:03.732Z,23.90
2018-08-20T13:07:31.834Z,24.00
2018-08-20T13:09:59.958Z,24.00
2018-08-20T13:12:28.066Z,24.20
2018-08-20T13:14:56.215Z,24.50
2018-08-20T13:17:24.317Z,24.70
2018-08-20T13:19:52.448Z,24.80
2018-08-20T13:22:20.559Z,24.90
2018-08-20T13:24:48.715Z,25.20
2018-08-20T13:27:16.846Z,25.50
2018-08-20T13:29:44.987Z,25.70
2018-08-20T13:32:13.227Z,25.50
2018-08-20T13:34:41.438Z,25.50
2018-08-20T13:37:09.654Z,25.70
2018-08-20T13:39:37.771Z,25.70
2018-08-20T13:42:05.942Z,25.70
2018-08-20T13:44:34.114Z,25.50
2018-08-20T13:47:02.402Z,25.40
2018-08-20T13:49:30.555Z,25.40
2018-08-20T13:51:58.700Z,25.50
2018-08-20T13:54:26.870Z,25.50
2018-08-20T13:56:55.173Z,25.70
2018-08-20T13:59:23.343Z,25.70
2018-08-20T14:01:51.529Z,25.70
2018-08-20T14:04:19.662Z,25.70
2018-08-20T14:06:47.843Z,25.60
2018-08-20T14:09:15.970Z,25.40
2018-08-20T14:11:44.175Z,25.30
2018-08-20T14:14:12.311Z,25.30
2018-08-20T14:16:40.509Z,25.40
2018-08-20T14:19:08.651Z,25.70
2018-08-20T14:21:36.834Z,25.90
2018-08-20T14:24:04.970Z,26.00
2018-08-20T14:26:33.144Z,26.00
2018-08-20T14:29:01.272Z,25.90
2018-08-20T14:31:29.450Z,25.80
2018-08-20T14:33:57.598Z,25.70
2018-08-20T14:36:25.754Z,25.60
2018-08-20T14:38:53.911Z,25.50
2018-08-20T14:41:22.065Z,25.70
2018-08-20T14:43:50.183Z,25.70
2018-08-20T14:46:21.640Z,25.70
2018-08-20T14:48:52.570Z,25.70
2018-08-20T14:51:20.714Z,25.50
2018-08-20T14:53:48.841Z,25.50
2018-08-20T14:56:16.962Z,25.50
2018-08-20T14:58:45.091Z,25.40
2018-08-20T15:01:13.207Z,25.40
2018-08-20T15:03:41.364Z,25.40
2018-08-20T15:06:09.474Z,25.50
2018-08-20T15:08:39.020Z,25.70
2018-08-20T15:11:07.171Z,25.80
2018-08-20T15:13:35.585Z,25.90
2018-08-20T15:16:03.847Z,26.00
2018-08-20T15:18:31.952Z,26.10
2018-08-20T15:21:00.091Z,26.00
2018-08-20T15:23:28.244Z,26.10
2018-08-20T15:25:56.494Z,26.00
2018-08-20T15:28:24.632Z,26.00
2018-08-20T15:30:52.766Z,25.90
2018-08-20T15:33:20.902Z,25.90
2018-08-20T15:35:49.030Z,25.90
2018-08-20T15:38:17.203Z,25.80
2018-08-20T15:40:45.351Z,25.80
2018-08-20T15:43:13.544Z,25.80
2018-08-20T15:45:41.670Z,25.80
2018-08-20T15:48:09.895Z,25.80
2018-08-20T15:50:38.046Z,25.80
2018-08-20T15:53:06.328Z,25.70
2018-08-20T15:55:34.391Z,25.80
2018-08-20T15:58:02.537Z,26.00
2018-08-20T16:00:30.667Z,26.00
2018-08-20T16:02:58.790Z,25.90
2018-08-20T16:05:26.918Z,25.90
2018-08-20T16:07:55.055Z,25.90
2018-08-20T16:10:23.206Z,25.90
2018-08-20T16:12:51.407Z,25.90
2018-08-20T16:15:19.569Z,25.80
2018-08-20T16:17:47.678Z,25.80
2018-08-20T16:20:15.814Z,25.70
2018-08-20T16:22:43.942Z,25.70
2018-08-20T16:25:12.094Z,25.70
2018-08-20T16:27:40.223Z,25.60
2018-08-20T16:30:10.595Z,25.50
2018-08-20T16:32:38.712Z,25.50
2018-08-20T16:35:08.442Z,25.50
2018-08-20T16:37:36.562Z,25.40
2018-08-20T16:40:05.300Z,25.40
2018-08-20T16:42:33.497Z,25.40
2018-08-20T16:45:01.661Z,25.40
2018-08-20T16:47:29.794Z,25.30
2018-08-20T16:49:57.923Z,25.10
2018-08-20T16:52:26.058Z,25.10
2018-08-20T16:54:54.184Z,25.10
2018-08-20T16:57:22.310Z,25.10
2018-08-20T16:59:50.451Z,25.20
2018-08-20T17:02:21.473Z,25.10
2018-08-20T17:04:49.583Z,25.00
2018-08-20T17:07:17.722Z,24.90
2018-08-20T17:09:46.702Z,24.90
2018-08-20T17:12:14.839Z,24.90
2018-08-20T17:14:42.968Z,24.90
2018-08-20T17:17:11.120Z,24.90
2018-08-20T17:19:39.226Z,24.90
2018-08-20T17:22:07.398Z,24.80
2018-08-20T17:24:38.694Z,24.70
2018-08-20T17:27:06.864Z,24.70
2018-08-20T17:29:34.992Z,24.60
2018-08-20T17:32:04.662Z,24.60
2018-08-20T17:34:32.789Z,24.60
2018-08-20T17:37:00.990Z,24.60
2018-08-20T17:39:29.127Z,24.50
2018-08-20T17:41:57.263Z,24.20
2018-08-20T17:44:25.396Z,24.10
2018-08-20T17:46:53.571Z,24.00
2018-08-20T17:49:26.981Z,23.80
2018-08-20T17:51:55.115Z,23.80
2018-08-20T17:54:23.251Z,23.70
2018-08-20T17:56:51.386Z,23.60
2018-08-20T17:59:20.787Z,23.50
2018-08-20T18:01:48.921Z,23.40
2018-08-20T18:04:18.536Z,23.50
2018-08-20T18:06:54.755Z,23.40
2018-08-20T18:09:22.912Z,23.40
2018-08-20T18:11:52.034Z,23.30
2018-08-20T18:14:22.391Z,23.30
2018-08-20T18:16:50.503Z,23.30
2018-08-20T18:19:18.694Z,23.30
2018-08-20T18:21:47.067Z,23.20
2018-08-20T18:24:17.298Z,23.30
2018-08-20T18:26:52.023Z,23.20
2018-08-20T18:29:20.155Z,23.20
2018-08-20T18:31:56.759Z,23.10
2018-08-20T18:34:24.916Z,23.10
2018-08-20T18:36:53.157Z,23.00
2018-08-20T18:39:21.359Z,23.00
2018-08-20T18:41:58.015Z,23.00
2018-08-20T18:44:26.169Z,23.00
2018-08-20T18:46:54.314Z,23.00
2018-08-20T18:49:23.111Z,23.00
2018-08-20T18:51:54.343Z,22.90
2018-08-20T18:54:22.514Z,22.90
2018-08-20T18:56:55.059Z,22.90
2018-08-20T18:59:23.223Z,22.90
2018-08-20T19:01:51.360Z,22.90
2018-08-20T19:04:19.770Z,22.90
2018-08-20T19:06:49.692Z,22.80
2018-08-20T19:09:17.820Z,22.80
2018-08-20T19:11:45.952Z,22.90
2018-08-20T19:14:14.097Z,22.80
2018-08-20T19:16:42.234Z,22.80
2018-08-20T19:19:10.371Z,22.80
2018-08-20T19:21:40.214Z,22.80
2018-08-20T19:24:09.214Z,22.90
2018-08-20T19:26:37.388Z,22.80
2018-08-20T19:29:15.414Z,22.80
2018-08-20T19:31:43.554Z,22.70
2018-08-20T19:34:11.678Z,22.60
2018-08-20T19:36:39.821Z,22.70
2018-08-20T19:39:07.970Z,22.70
2018-08-20T19:41:36.103Z,22.60
2018-08-20T19:44:04.225Z,22.60
2018-08-20T19:46:37.432Z,22.60
2018-08-20T19:49:10.243Z,22.60
2018-08-20T19:51:40.406Z,22.60
2018-08-20T19:54:10.119Z,22.50
2018-08-20T19:56:38.504Z,22.50
2018-08-20T19:59:06.883Z,22.50
2018-08-20T20:01:35.008Z,22.50
2018-08-20T20:04:03.125Z,22.40
2018-08-20T20:06:31.308Z,22.50
2018-08-20T20:09:05.470Z,22.50
2018-08-20T20:11:33.618Z,22.50
2018-08-20T20:14:02.880Z,22.50
2018-08-20T20:16:38.934Z,22.50
2018-08-20T20:19:07.227Z,22.50
2018-08-20T20:21:35.655Z,22.50
2018-08-20T20:24:03.796Z,22.50
2018-08-20T20:26:31.986Z,22.50
2018-08-20T20:29:00.297Z,22.50
2018-08-20T20:31:28.418Z,22.50
2018-08-20T20:33:56.634Z,22.50
2018-08-20T20:36:25.658Z,22.50
2018-08-20T20:38:54.261Z,22.40
2018-08-20T20:41:22.723Z,22.40
2018-08-20T20:43:50.880Z,22.40
2018-08-20T20:46:19.000Z,22.40
2018-08-20T20:48:47.144Z,22.30
2018-08-20T20:51:15.309Z,22.30
2018-08-20T20:53:43.459Z,22.40
2018-08-20T20:56:11.655Z,22.40
2018-08-20T20:58:40.256Z,22.40
2018-08-20T21:01:09.986Z,22.30
2018-08-20T21:03:38.108Z,22.30
2018-08-20T21:06:06.921Z,22.20
2018-08-20T21:08:40.899Z,22.20
2018-08-20T21:11:10.096Z,22.20
2018-08-20T21:13:38.499Z,22.20
2018-08-20T21:16:07.810Z,22.20
2018-08-20T21:18:45.841Z,22.20
2018-08-20T21:21:16.851Z,22.20
2018-08-20T21:23:45.011Z,22.10
2018-08-20T21:26:13.148Z,22.10
2018-08-20T21:28:46.407Z,22.10
2018-08-20T21:31:15.686Z,22.10
2018-08-20T21:33:44.370Z,22.10
2018-08-20T21:36:12.967Z,22.10
2018-08-20T21:38:41.183Z,22.10
2018-08-20T21:41:09.415Z,22.10
2018-08-20T21:43:52.335Z,22.00
2018-08-20T21:46:20.599Z,22.00
2018-08-20T21:48:48.809Z,22.00
2018-08-20T21:51:23.607Z,22.00
2018-08-20T21:53:51.758Z,22.00
2018-08-20T21:56:19.846Z,22.10
2018-08-20T21:58:47.952Z,22.10
2018-08-20T22:01:16.918Z,22.10
2018-08-20T22:03:45.282Z,22.10
2018-08-20T22:06:13.775Z,22.10
2018-08-20T22:08:42.262Z,22.10
2018-08-20T22:11:10.952Z,22.10
2018-08-20T22:13:39.334Z,22.10
2018-08-20T22:16:22.994Z,22.10
2018-08-20T22:18:55.539Z,22.00
2018-08-20T22:21:23.851Z,22.00
2018-08-20T22:23:52.518Z,22.00
2018-08-20T22:26:21.385Z,22.00
2018-08-20T22:28:51.537Z,21.90
2018-08-20T22:31:20.079Z,21.90
2018-08-20T22:33:54.818Z,21.90
2018-08-20T22:36:22.919Z,21.80
2018-08-20T22:38:58.333Z,21.80
2018-08-20T22:41:27.898Z,21.80
2018-08-20T22:43:56.036Z,21.70
2018-08-20T22:46:24.588Z,21.70
2018-08-20T22:48:56.211Z,21.70
2018-08-20T22:51:25.340Z,21.70
2018-08-20T22:53:55.591Z,21.70
2018-08-20T22:56:33.353Z,21.70
2018-08-20T22:59:07.077Z,21.70
2018-08-20T23:01:35.226Z,21.70
2018-08-20T23:04:03.379Z,21.70
2018-08-20T23:06:31.500Z,21.70
2018-08-20T23:09:04.420Z,21.70
2018-08-20T23:11:41.315Z,21.70
2018-08-20T23:14:11.058Z,21.70
2018-08-20T23:16:39.394Z,21.60
2018-08-20T23:19:08.194Z,21.60
2018-08-20T23:21:41.796Z,21.60
2018-08-20T23:24:11.049Z,21.60
2018-08-20T23:26:39.446Z,21.60
2018-08-20T23:29:07.849Z,21.50
2018-08-20T23:31:36.262Z,21.50
2018-08-20T23:34:07.598Z,21.50
2018-08-20T23:36:35.996Z,21.40
2018-08-20T23:39:06.814Z,21.40
2018-08-20T23:41:35.155Z,21.40
2018-08-20T23:44:03.618Z,21.40
2018-08-20T23:46:38.471Z,21.40
2018-08-20T23:49:06.578Z,21.40
2018-08-20T23:51:34.726Z,21.40
2018-08-20T23:54:02.947Z,21.40
2018-08-20T23:56:31.238Z,21.40
2018-08-20T23:58:59.799Z,21.40
